»·PEaware :: N700EN KSAN-KSFO

N700EN :: KSAN-KSFO

FLIGHT INFORMATION

Flight Status: Arrived
Operator: Privately registered:
United States
More flights under this callsign
Pilot: James L. (28459)
Aircraft: SOCATA TBM-900
(TBM9)
More flights by this aircraft type
Origin: KSAN San Diego Intl-Lindbergh
United States
Destination: KSFO San Francisco Intl
United States
More flights between these airports :: More routes between these airports
Route: +PADRZ2 IKAYE RIZIN SPLNT STOKD SERFR OSI
File this flight plan on PilotEdge
Remarks:
Altitude:
(Current/Filed)
28,000ft
Speed:
(Current/Filed)
300kts
Departed: 27-Mar-20 05:53 PM
Arrived: 27-Mar-20 07:44 PM
Distance/Time
Traveled:
388nm/1:51
Distance/Time
To Go:
Arrived

Flight Plot

Page will automatically refresh every two minutes.

Flight plan parsing failed; only flown route is shown


Map Options




Map Legend


Flown Route
Filed Route
Departure Airport
Arrival Airport
Navaid (VOR, NDB)
Fix

Horizontal Profiles

Position Reports

Time Latitude Longitude Heading Altitude Ground
Speed
27-Mar-20 17:21 32.736531 -117.184982 354 16ft 0kts
27-Mar-20 17:22 32.736531 -117.184982 354 16ft 0kts
27-Mar-20 17:23 32.736531 -117.184982 354 16ft 0kts
27-Mar-20 17:24 32.736531 -117.184982 354 16ft 0kts
27-Mar-20 17:25 32.736531 -117.184982 354 16ft 0kts
27-Mar-20 17:26 32.736531 -117.184982 354 16ft 0kts
27-Mar-20 17:27 32.736531 -117.184982 354 16ft 0kts
27-Mar-20 17:28 32.736531 -117.184982 354 16ft 0kts
27-Mar-20 17:29 32.736531 -117.184982 354 16ft 0kts
27-Mar-20 17:30 32.736531 -117.184982 354 16ft 0kts
27-Mar-20 17:31 32.736531 -117.184982 354 16ft 0kts
27-Mar-20 17:32 32.736531 -117.184982 354 16ft 0kts
27-Mar-20 17:33 32.736531 -117.184982 354 16ft 0kts
27-Mar-20 17:34 32.736531 -117.184982 354 16ft 0kts
27-Mar-20 17:35 32.736531 -117.184982 354 16ft 0kts
27-Mar-20 17:36 32.736531 -117.184982 354 16ft 0kts
27-Mar-20 17:37 32.736531 -117.184982 354 16ft 0kts
27-Mar-20 17:38 32.736531 -117.184982 354 16ft 0kts
27-Mar-20 17:39 32.736531 -117.184982 354 16ft 0kts
27-Mar-20 17:40 32.736531 -117.184982 354 16ft 0kts
27-Mar-20 17:41 32.736531 -117.184982 354 16ft 0kts
27-Mar-20 17:42 32.736531 -117.184982 354 16ft 0kts
27-Mar-20 17:43 32.736531 -117.184982 354 16ft 0kts
27-Mar-20 17:44 32.736531 -117.184982 354 16ft 0kts
27-Mar-20 17:45 32.735141 -117.184471 144 16ft 18kts
27-Mar-20 17:46 32.732741 -117.181459 106 15ft 16kts
27-Mar-20 17:47 32.731291 -117.176637 173 19ft 6kts
27-Mar-20 17:48 32.731261 -117.176636 181 19ft 0kts
27-Mar-20 17:49 32.731261 -117.176636 181 19ft 0kts
27-Mar-20 17:50 32.731259 -117.176636 181 19ft 0kts
27-Mar-20 17:51 32.731259 -117.176636 181 19ft 0kts
27-Mar-20 17:52 32.732021 -117.183369 286 18ft 107kts
27-Mar-20 17:53 32.746006 -117.217537 301 1551ft 141kts
27-Mar-20 17:54 32.767088 -117.257406 302 3779ft 141kts
27-Mar-20 17:55 32.788741 -117.298435 303 6079ft 149kts
27-Mar-20 17:56 32.812649 -117.338632 309 8394ft 153kts
27-Mar-20 17:57 32.837881 -117.377732 309 10796ft 148kts
27-Mar-20 17:58 32.863173 -117.416958 309 13076ft 151kts
27-Mar-20 17:59 32.891403 -117.460778 308 14157ft 204kts
27-Mar-20 18:00 32.930306 -117.521304 308 14128ft 244kts
27-Mar-20 18:01 32.972242 -117.586674 308 14123ft 251kts
27-Mar-20 18:02 33.014876 -117.653247 308 14124ft 252kts
27-Mar-20 18:03 33.057537 -117.719978 308 14126ft 253kts
27-Mar-20 18:04 33.106832 -117.773324 319 14129ft 252kts
27-Mar-20 18:05 33.162973 -117.830441 319 14130ft 253kts
27-Mar-20 18:07 33.214968 -117.887015 315 14127ft 253kts
27-Mar-20 18:08 33.264692 -117.946303 315 14122ft 253kts
27-Mar-20 18:09 33.308181 -117.998206 315 16463ft 189kts
27-Mar-20 18:10 33.341659 -118.038204 315 19073ft 161kts
27-Mar-20 18:11 33.373522 -118.076329 314 21247ft 166kts
27-Mar-20 18:12 33.406399 -118.115708 314 23435ft 171kts
27-Mar-20 18:13 33.440292 -118.156360 313 25642ft 176kts
27-Mar-20 18:14 33.475255 -118.198341 312 27765ft 183kts
27-Mar-20 18:15 33.517085 -118.248706 313 28202ft 247kts
27-Mar-20 18:16 33.569263 -118.311543 313 28177ft 276kts
27-Mar-20 18:17 33.624067 -118.377675 313 28171ft 282kts
27-Mar-20 18:18 33.679759 -118.445003 313 28166ft 284kts
27-Mar-20 18:19 33.735592 -118.512641 313 28161ft 285kts
27-Mar-20 18:20 33.791286 -118.580231 313 28158ft 285kts
27-Mar-20 18:21 33.847103 -118.648111 313 28156ft 285kts
27-Mar-20 18:22 33.902729 -118.715895 312 28160ft 286kts
27-Mar-20 18:22 33.949353 -118.772808 312 28156ft 286kts
27-Mar-20 18:24 34.014449 -118.852436 313 28160ft 285kts
27-Mar-20 18:25 34.070134 -118.920693 313 28165ft 285kts
27-Mar-20 18:25 34.116381 -118.977487 313 28172ft 285kts
27-Mar-20 18:26 34.165054 -119.053046 302 28171ft 286kts
27-Mar-20 18:28 34.214200 -119.148151 302 28166ft 286kts
27-Mar-20 18:28 34.249247 -119.216257 302 28164ft 286kts
27-Mar-20 18:29 34.291122 -119.297811 302 28163ft 286kts
27-Mar-20 18:30 34.333006 -119.379566 302 28161ft 286kts
27-Mar-20 18:31 34.374790 -119.461316 302 28157ft 285kts
27-Mar-20 18:32 34.418796 -119.541494 313 28147ft 286kts
27-Mar-20 18:33 34.474543 -119.610411 313 28151ft 285kts
27-Mar-20 18:34 34.530362 -119.679133 313 28157ft 285kts
27-Mar-20 18:35 34.586163 -119.747950 313 28156ft 286kts
27-Mar-20 18:36 34.642026 -119.816990 313 28166ft 286kts
27-Mar-20 18:37 34.697609 -119.885819 313 28181ft 286kts
27-Mar-20 18:38 34.753134 -119.954719 313 28198ft 285kts
27-Mar-20 18:39 34.808611 -120.023704 313 28208ft 285kts
27-Mar-20 18:40 34.863966 -120.092674 313 28210ft 285kts
27-Mar-20 18:41 34.919493 -120.162009 313 28212ft 286kts
27-Mar-20 18:42 34.975242 -120.231762 313 28214ft 287kts
27-Mar-20 18:43 35.031044 -120.301721 313 28214ft 289kts
27-Mar-20 18:44 35.087211 -120.372223 314 28213ft 290kts
27-Mar-20 18:45 35.146726 -120.438894 316 28219ft 291kts
27-Mar-20 18:46 35.206522 -120.505923 316 28218ft 292kts
27-Mar-20 18:47 35.239039 -120.542433 316 28218ft 292kts
27-Mar-20 18:48 35.239039 -120.542433 316 28218ft 292kts
27-Mar-20 18:49 35.239039 -120.542433 316 28218ft 292kts
27-Mar-20 18:50 35.239039 -120.542433 316 28218ft 292kts
27-Mar-20 18:51 35.239039 -120.542433 316 28218ft 292kts
27-Mar-20 18:52 35.239039 -120.542433 316 28218ft 292kts
27-Mar-20 18:53 35.239039 -120.542433 316 28218ft 292kts
27-Mar-20 18:54 35.239039 -120.542433 316 28218ft 292kts
27-Mar-20 18:55 35.239039 -120.542433 316 28218ft 292kts
27-Mar-20 18:56 35.239039 -120.542433 316 28218ft 292kts
27-Mar-20 18:57 35.239039 -120.542433 316 28218ft 292kts
27-Mar-20 18:58 35.239039 -120.542433 316 28218ft 292kts
27-Mar-20 18:59 35.239039 -120.542433 316 28218ft 292kts
27-Mar-20 19:00 35.239039 -120.542433 316 28218ft 292kts
27-Mar-20 19:01 35.281017 -120.589620 316 28235ft 290kts
27-Mar-20 19:02 35.340251 -120.656346 316 28238ft 289kts
27-Mar-20 19:03 35.399419 -120.723119 316 28233ft 290kts
27-Mar-20 19:04 35.458607 -120.790059 316 28218ft 290kts
27-Mar-20 19:05 35.520935 -120.852880 321 28204ft 290kts
27-Mar-20 19:06 35.585372 -120.912694 321 28201ft 290kts
27-Mar-20 19:07 35.649754 -120.972539 321 28200ft 290kts
27-Mar-20 19:08 35.714068 -121.032443 321 28199ft 290kts
27-Mar-20 19:09 35.777949 -121.092081 321 27380ft 287kts
27-Mar-20 19:10 35.838256 -121.148491 321 25940ft 287kts
27-Mar-20 19:11 35.904693 -121.210758 320 24349ft 287kts
27-Mar-20 19:12 35.967945 -121.270171 321 22832ft 287kts
27-Mar-20 19:13 36.031517 -121.330001 321 21307ft 288kts
27-Mar-20 19:14 36.098792 -121.385391 329 20253ft 285kts
27-Mar-20 19:15 36.166142 -121.431145 329 20262ft 271kts
27-Mar-20 19:16 36.231748 -121.475842 329 20264ft 268kts
27-Mar-20 19:17 36.295757 -121.519555 329 19042ft 269kts
27-Mar-20 19:18 36.361047 -121.564210 329 17457ft 274kts
27-Mar-20 19:19 36.425872 -121.608626 329 15891ft 275kts
27-Mar-20 19:20 36.489207 -121.652106 329 14365ft 276kts
27-Mar-20 19:21 36.555287 -121.697557 329 12793ft 277kts
27-Mar-20 19:22 36.621373 -121.743082 329 12019ft 265kts
27-Mar-20 19:23 36.682191 -121.785070 329 12018ft 255kts
27-Mar-20 19:24 36.741305 -121.825965 329 12014ft 254kts
27-Mar-20 19:25 36.800079 -121.866695 329 12005ft 253kts
27-Mar-20 19:26 36.858464 -121.907233 329 10681ft 263kts
27-Mar-20 19:27 36.914087 -121.945909 329 9289ft 264kts
27-Mar-20 19:28 36.964535 -121.981046 329 8058ft 262kts
27-Mar-20 19:29 37.017069 -122.017695 329 7346ft 256kts
27-Mar-20 19:30 37.077736 -122.060096 329 5997ft 256kts
27-Mar-20 19:31 37.143567 -122.106517 333 5011ft 245kts
27-Mar-20 19:32 37.208212 -122.135452 340 4998ft 211kts
27-Mar-20 19:33 37.260687 -122.156553 340 5005ft 202kts
27-Mar-20 19:34 37.310056 -122.176011 346 5006ft 221kts
27-Mar-20 19:35 37.373303 -122.186779 350 3906ft 222kts
27-Mar-20 19:36 37.430847 -122.195439 354 3904ft 197kts
27-Mar-20 19:37 37.483207 -122.207103 347 2991ft 176kts
27-Mar-20 19:38 37.525289 -122.216114 346 1938ft 120kts
27-Mar-20 19:39 37.558292 -122.231210 301 1077ft 109kts
27-Mar-20 19:40 37.573852 -122.266053 295 1149ft 143kts
27-Mar-20 19:41 37.592865 -122.310405 299 1124ft 118kts
27-Mar-20 19:42 37.608543 -122.345455 292 227ft 84kts
27-Mar-20 19:43 37.617013 -122.365512 298 6ft 22kts

Navigation Log

Ident Type
Flight plan parsing failed, navigation log unavailable